AUA730 LQSA-LOWW
Flight info
| Callsign | AUA730 |
|---|---|
| Flight time | 0h 47m |
| Altitude | 36000 |
| Route | BOSNA1J BOSNA DCT OBUTI OBUTI2W |
| Aircraft | A320/M-SDE3FGHIRWY/LB1 |
Departure
| Time | 2026-04-26 19:47 |
|---|---|
| Airport | Sarajevo International Airport (LQSA) |
Arrival
| Time | 2026-04-26 20:35 |
|---|---|
| Airport | Vienna International Airport (LOWW) |
| Time | Latitude | Longitude | Altitude | Speed | Heading |
|---|---|---|---|---|---|
| 2026-04-26 19:10 | 43.82537 | 18.33623 | 1658 ft | 0 kts | 27° |
| 2026-04-26 19:42 | 43.82529 | 18.33618 | 1690 ft | 4 kts | 28° |
| 2026-04-26 19:42 | 43.82506 | 18.33599 | 1688 ft | 4 kts | 38° |
| 2026-04-26 19:42 | 43.82488 | 18.33573 | 1689 ft | 4 kts | 69° |
| 2026-04-26 19:43 | 43.82487 | 18.33549 | 1691 ft | 0 kts | 117° |
| 2026-04-26 19:44 | 43.82477 | 18.33573 | 1689 ft | 8 kts | 117° |
| 2026-04-26 19:44 | 43.82425 | 18.33715 | 1691 ft | 21 kts | 116° |
| 2026-04-26 19:45 | 43.82360 | 18.33889 | 1693 ft | 20 kts | 117° |
| 2026-04-26 19:45 | 43.82288 | 18.34081 | 1699 ft | 25 kts | 118° |
| 2026-04-26 19:45 | 43.82209 | 18.34290 | 1707 ft | 24 kts | 117° |
| 2026-04-26 19:45 | 43.82136 | 18.34487 | 1710 ft | 22 kts | 117° |
| 2026-04-26 19:46 | 43.82032 | 18.34621 | 1715 ft | 20 kts | 171° |
| 2026-04-26 19:46 | 43.81950 | 18.34508 | 1714 ft | 20 kts | 288° |
| 2026-04-26 19:46 | 43.82053 | 18.34229 | 1707 ft | 63 kts | 297° |
| 2026-04-26 19:46 | 43.82368 | 18.33391 | 1691 ft | 131 kts | 297° |
| 2026-04-26 19:47 | 43.82868 | 18.32115 | 1888 ft | 160 kts | 300° |
| 2026-04-26 19:47 | 43.83248 | 18.31209 | 2216 ft | 168 kts | 301° |
| 2026-04-26 19:47 | 43.84317 | 18.29685 | 3099 ft | 167 kts | 343° |
| 2026-04-26 19:47 | 43.85471 | 18.29250 | 3584 ft | 183 kts | 346° |
| 2026-04-26 19:48 | 43.86779 | 18.28787 | 4040 ft | 206 kts | 346° |
| 2026-04-26 19:48 | 43.88247 | 18.28264 | 4468 ft | 230 kts | 346° |
| 2026-04-26 19:48 | 43.89861 | 18.27684 | 5151 ft | 244 kts | 347° |
| 2026-04-26 19:48 | 43.91516 | 18.27087 | 6148 ft | 246 kts | 346° |
| 2026-04-26 19:49 | 43.93179 | 18.26486 | 7157 ft | 247 kts | 346° |
| 2026-04-26 19:49 | 43.94847 | 18.25883 | 8162 ft | 249 kts | 346° |
| 2026-04-26 19:49 | 43.96589 | 18.25534 | 8919 ft | 262 kts | 354° |
| 2026-04-26 19:49 | 43.98447 | 18.25284 | 9680 ft | 272 kts | 354° |
| 2026-04-26 19:50 | 44.00348 | 18.25039 | 10559 ft | 276 kts | 354° |
| 2026-04-26 19:50 | 44.02279 | 18.24789 | 11429 ft | 281 kts | 354° |
| 2026-04-26 19:50 | 44.04238 | 18.24510 | 12300 ft | 285 kts | 350° |
| 2026-04-26 19:50 | 44.06150 | 18.23706 | 13189 ft | 291 kts | 335° |
| 2026-04-26 19:51 | 44.07895 | 18.22171 | 13797 ft | 310 kts | 320° |
| 2026-04-26 19:51 | 44.09433 | 18.19901 | 14123 ft | 335 kts | 312° |
| 2026-04-26 19:51 | 44.11000 | 18.17407 | 14698 ft | 347 kts | 312° |
| 2026-04-26 19:51 | 44.12604 | 18.14854 | 15510 ft | 353 kts | 312° |
| 2026-04-26 19:52 | 44.14234 | 18.12266 | 16337 ft | 358 kts | 312° |
| 2026-04-26 19:52 | 44.15893 | 18.09639 | 17145 ft | 364 kts | 312° |
| 2026-04-26 19:52 | 44.17577 | 18.06972 | 17974 ft | 369 kts | 312° |
| 2026-04-26 19:52 | 44.19288 | 18.04265 | 18738 ft | 375 kts | 312° |
| 2026-04-26 19:53 | 44.21022 | 18.01521 | 19450 ft | 379 kts | 312° |
| 2026-04-26 19:53 | 44.22775 | 17.98748 | 20165 ft | 383 kts | 312° |
| 2026-04-26 19:53 | 44.24544 | 17.95944 | 20854 ft | 387 kts | 311° |
| 2026-04-26 19:53 | 44.26326 | 17.93110 | 21534 ft | 390 kts | 311° |
| 2026-04-26 19:54 | 44.28098 | 17.90285 | 22175 ft | 394 kts | 311° |
| 2026-04-26 19:54 | 44.29907 | 17.87396 | 22779 ft | 397 kts | 311° |
| 2026-04-26 19:54 | 44.31731 | 17.84482 | 23347 ft | 400 kts | 311° |
| 2026-04-26 19:54 | 44.33567 | 17.81552 | 23876 ft | 403 kts | 311° |
| 2026-04-26 19:55 | 44.35424 | 17.78611 | 24346 ft | 404 kts | 314° |
| 2026-04-26 19:55 | 44.37527 | 17.75986 | 24752 ft | 407 kts | 323° |
| 2026-04-26 19:55 | 44.39941 | 17.73903 | 25177 ft | 409 kts | 332° |
| 2026-04-26 19:55 | 44.42489 | 17.72103 | 25568 ft | 411 kts | 332° |
| 2026-04-26 19:56 | 44.45050 | 17.70290 | 25950 ft | 414 kts | 332° |
| 2026-04-26 19:56 | 44.47623 | 17.68461 | 26322 ft | 416 kts | 332° |
| 2026-04-26 19:56 | 44.50207 | 17.66616 | 26683 ft | 418 kts | 332° |
| 2026-04-26 19:56 | 44.52804 | 17.64756 | 27044 ft | 420 kts | 332° |
| 2026-04-26 19:57 | 44.55413 | 17.62883 | 27400 ft | 422 kts | 332° |
| 2026-04-26 19:57 | 44.58034 | 17.60998 | 27752 ft | 424 kts | 332° |
| 2026-04-26 19:57 | 44.60668 | 17.59102 | 28115 ft | 426 kts | 332° |
| 2026-04-26 19:57 | 44.63311 | 17.57203 | 28492 ft | 427 kts | 332° |
| 2026-04-26 19:58 | 44.65965 | 17.55300 | 28837 ft | 429 kts | 332° |
| 2026-04-26 19:58 | 44.68620 | 17.53397 | 29280 ft | 428 kts | 332° |
| 2026-04-26 19:58 | 44.71269 | 17.51495 | 29736 ft | 428 kts | 332° |
| 2026-04-26 19:58 | 44.73921 | 17.49588 | 30088 ft | 429 kts | 332° |
| 2026-04-26 19:59 | 44.76583 | 17.47673 | 30385 ft | 431 kts | 332° |
| 2026-04-26 19:59 | 44.79254 | 17.45746 | 30657 ft | 432 kts | 332° |
| 2026-04-26 19:59 | 44.81933 | 17.43807 | 30909 ft | 434 kts | 331° |
| 2026-04-26 19:59 | 44.84620 | 17.41859 | 31180 ft | 435 kts | 331° |
| 2026-04-26 20:00 | 44.87314 | 17.39902 | 31437 ft | 436 kts | 331° |
| 2026-04-26 20:00 | 44.90014 | 17.37940 | 31702 ft | 437 kts | 331° |
| 2026-04-26 20:00 | 44.92709 | 17.35984 | 32072 ft | 435 kts | 331° |
| 2026-04-26 20:00 | 44.95393 | 17.34033 | 32439 ft | 433 kts | 331° |
| 2026-04-26 20:01 | 44.98069 | 17.32086 | 32772 ft | 432 kts | 331° |
| 2026-04-26 20:01 | 45.00737 | 17.30143 | 33075 ft | 431 kts | 331° |
| 2026-04-26 20:01 | 45.02497 | 17.28860 | 33298 ft | 430 kts | 331° |
| 2026-04-26 20:01 | 45.06048 | 17.26267 | 33756 ft | 429 kts | 330° |
| 2026-04-26 20:02 | 45.07806 | 17.24982 | 33970 ft | 429 kts | 330° |
| 2026-04-26 20:02 | 45.10455 | 17.23045 | 34278 ft | 428 kts | 330° |
| 2026-04-26 20:02 | 45.13098 | 17.21109 | 34554 ft | 427 kts | 330° |
| 2026-04-26 20:02 | 45.14843 | 17.19831 | 34731 ft | 427 kts | 330° |
| 2026-04-26 20:03 | 45.18376 | 17.17243 | 35071 ft | 427 kts | 330° |
| 2026-04-26 20:03 | 45.21010 | 17.15314 | 35327 ft | 426 kts | 330° |
| 2026-04-26 20:03 | 45.23628 | 17.13356 | 35570 ft | 425 kts | 329° |
| 2026-04-26 20:03 | 45.26238 | 17.11405 | 35797 ft | 425 kts | 330° |
| 2026-04-26 20:04 | 45.28859 | 17.09469 | 36053 ft | 424 kts | 329° |
| 2026-04-26 20:04 | 45.31486 | 17.07539 | 36172 ft | 426 kts | 329° |
| 2026-04-26 20:04 | 45.36806 | 17.03631 | 36202 ft | 435 kts | 329° |
| 2026-04-26 20:05 | 45.42217 | 16.99630 | 36200 ft | 441 kts | 329° |
| 2026-04-26 20:05 | 45.47656 | 16.95586 | 36206 ft | 446 kts | 329° |
| 2026-04-26 20:06 | 45.53183 | 16.91492 | 36202 ft | 449 kts | 329° |
| 2026-04-26 20:06 | 45.58721 | 16.87363 | 36210 ft | 450 kts | 329° |
| 2026-04-26 20:07 | 45.64274 | 16.83210 | 36210 ft | 451 kts | 329° |
| 2026-04-26 20:07 | 45.69836 | 16.79058 | 36211 ft | 451 kts | 329° |
| 2026-04-26 20:08 | 45.75400 | 16.74893 | 36228 ft | 451 kts | 329° |
| 2026-04-26 20:08 | 45.80957 | 16.70713 | 36224 ft | 451 kts | 329° |
| 2026-04-26 20:09 | 45.86517 | 16.66521 | 36235 ft | 451 kts | 329° |
| 2026-04-26 20:09 | 45.92079 | 16.62322 | 36247 ft | 452 kts | 329° |
| 2026-04-26 20:10 | 45.97638 | 16.58107 | 36247 ft | 452 kts | 329° |
| 2026-04-26 20:10 | 46.03194 | 16.53900 | 36253 ft | 452 kts | 329° |
| 2026-04-26 20:11 | 46.08752 | 16.49681 | 36247 ft | 452 kts | 329° |
| 2026-04-26 20:12 | 46.17095 | 16.43327 | 36239 ft | 452 kts | 329° |
| 2026-04-26 20:12 | 46.22658 | 16.39070 | 36264 ft | 452 kts | 329° |
| 2026-04-26 20:13 | 46.28181 | 16.34832 | 36262 ft | 452 kts | 329° |
| 2026-04-26 20:13 | 46.33735 | 16.30556 | 36266 ft | 452 kts | 329° |
| 2026-04-26 20:14 | 46.39543 | 16.27062 | 36268 ft | 458 kts | 344° |
| 2026-04-26 20:14 | 46.45843 | 16.25524 | 36282 ft | 459 kts | 347° |
| 2026-04-26 20:15 | 46.52145 | 16.24024 | 36275 ft | 459 kts | 347° |
| 2026-04-26 20:15 | 46.58441 | 16.22515 | 36275 ft | 458 kts | 347° |
| 2026-04-26 20:16 | 46.64735 | 16.21015 | 36299 ft | 458 kts | 347° |
| 2026-04-26 20:16 | 46.71025 | 16.19526 | 36289 ft | 458 kts | 347° |
| 2026-04-26 20:17 | 46.77307 | 16.18039 | 36285 ft | 457 kts | 347° |
| 2026-04-26 20:17 | 46.83573 | 16.16537 | 36278 ft | 456 kts | 347° |
| 2026-04-26 20:18 | 46.89838 | 16.15020 | 36295 ft | 456 kts | 347° |
| 2026-04-26 20:18 | 46.96080 | 16.13513 | 36265 ft | 448 kts | 347° |
| 2026-04-26 20:18 | 46.99121 | 16.12787 | 35799 ft | 440 kts | 347° |
| 2026-04-26 20:19 | 47.02127 | 16.12069 | 35183 ft | 436 kts | 347° |
| 2026-04-26 20:19 | 47.05106 | 16.11357 | 34572 ft | 432 kts | 347° |
| 2026-04-26 20:19 | 47.08058 | 16.10649 | 33927 ft | 428 kts | 347° |
| 2026-04-26 20:19 | 47.10988 | 16.09942 | 33248 ft | 425 kts | 346° |
| 2026-04-26 20:20 | 47.13896 | 16.09237 | 32591 ft | 422 kts | 346° |
| 2026-04-26 20:20 | 47.16784 | 16.08535 | 31940 ft | 419 kts | 346° |
| 2026-04-26 20:20 | 47.19652 | 16.07834 | 31302 ft | 416 kts | 346° |
| 2026-04-26 20:20 | 47.22501 | 16.07135 | 30679 ft | 414 kts | 346° |
| 2026-04-26 20:21 | 47.25347 | 16.06433 | 30032 ft | 420 kts | 346° |
| 2026-04-26 20:21 | 47.28263 | 16.05711 | 29326 ft | 427 kts | 347° |
| 2026-04-26 20:21 | 47.31189 | 16.04994 | 28647 ft | 427 kts | 347° |
| 2026-04-26 20:21 | 47.34114 | 16.04286 | 27973 ft | 425 kts | 347° |
| 2026-04-26 20:22 | 47.37070 | 16.04049 | 27249 ft | 430 kts | 2° |
| 2026-04-26 20:22 | 47.39954 | 16.05068 | 26547 ft | 434 kts | 14° |
| 2026-04-26 20:22 | 47.42817 | 16.06470 | 25842 ft | 433 kts | 15° |
| 2026-04-26 20:22 | 47.45664 | 16.07889 | 25164 ft | 431 kts | 15° |
| 2026-04-26 20:23 | 47.48498 | 16.09313 | 24479 ft | 430 kts | 15° |
| 2026-04-26 20:23 | 47.51327 | 16.10736 | 23793 ft | 429 kts | 15° |
| 2026-04-26 20:23 | 47.54154 | 16.12152 | 22964 ft | 429 kts | 15° |
| 2026-04-26 20:23 | 47.57038 | 16.13587 | 22155 ft | 446 kts | 15° |
| 2026-04-26 20:24 | 47.59985 | 16.15048 | 21381 ft | 446 kts | 15° |
| 2026-04-26 20:24 | 47.62915 | 16.16505 | 20588 ft | 443 kts | 16° |
| 2026-04-26 20:24 | 47.65817 | 16.17957 | 19850 ft | 438 kts | 16° |
| 2026-04-26 20:24 | 47.68693 | 16.19399 | 19127 ft | 434 kts | 16° |
| 2026-04-26 20:25 | 47.71543 | 16.20828 | 18398 ft | 430 kts | 16° |
| 2026-04-26 20:25 | 47.73405 | 16.21793 | 17862 ft | 428 kts | 19° |
| 2026-04-26 20:25 | 47.76648 | 16.25187 | 16814 ft | 434 kts | 47° |
| 2026-04-26 20:25 | 47.78177 | 16.29059 | 16041 ft | 437 kts | 64° |
| 2026-04-26 20:26 | 47.79302 | 16.33253 | 15256 ft | 437 kts | 67° |
| 2026-04-26 20:26 | 47.80278 | 16.37522 | 14489 ft | 435 kts | 69° |
| 2026-04-26 20:26 | 47.81180 | 16.41795 | 13628 ft | 429 kts | 70° |
| 2026-04-26 20:26 | 47.82054 | 16.45989 | 12748 ft | 420 kts | 69° |
| 2026-04-26 20:27 | 47.82935 | 16.50089 | 11885 ft | 412 kts | 69° |
| 2026-04-26 20:27 | 47.83828 | 16.54085 | 11048 ft | 404 kts | 68° |
| 2026-04-26 20:27 | 47.84718 | 16.57951 | 10241 ft | 396 kts | 67° |
| 2026-04-26 20:27 | 47.85628 | 16.61831 | 9350 ft | 397 kts | 67° |
| 2026-04-26 20:28 | 47.86545 | 16.65706 | 8487 ft | 396 kts | 68° |
| 2026-04-26 20:28 | 47.87457 | 16.69570 | 7622 ft | 394 kts | 68° |
| 2026-04-26 20:28 | 47.88335 | 16.73345 | 6778 ft | 377 kts | 68° |
| 2026-04-26 20:28 | 47.89206 | 16.76955 | 5903 ft | 362 kts | 63° |
| 2026-04-26 20:29 | 47.90497 | 16.80018 | 5099 ft | 338 kts | 47° |
| 2026-04-26 20:29 | 47.92221 | 16.82258 | 4561 ft | 324 kts | 32° |
| 2026-04-26 20:29 | 47.94232 | 16.83666 | 4042 ft | 317 kts | 17° |
| 2026-04-26 20:29 | 47.96390 | 16.84179 | 3532 ft | 314 kts | 1° |
| 2026-04-26 20:30 | 47.98539 | 16.83791 | 3087 ft | 312 kts | 346° |
| 2026-04-26 20:30 | 48.00501 | 16.82562 | 2983 ft | 295 kts | 331° |
| 2026-04-26 20:30 | 48.02145 | 16.81058 | 3004 ft | 263 kts | 330° |
| 2026-04-26 20:30 | 48.03566 | 16.79409 | 3004 ft | 258 kts | 313° |
| 2026-04-26 20:31 | 48.04466 | 16.77222 | 3004 ft | 235 kts | 298° |
| 2026-04-26 20:31 | 48.05146 | 16.75139 | 3009 ft | 214 kts | 298° |
| 2026-04-26 20:31 | 48.05779 | 16.73211 | 2922 ft | 201 kts | 298° |
| 2026-04-26 20:31 | 48.06376 | 16.71393 | 2654 ft | 188 kts | 299° |
| 2026-04-26 20:32 | 48.06928 | 16.69710 | 2446 ft | 175 kts | 299° |
| 2026-04-26 20:32 | 48.07436 | 16.68161 | 2227 ft | 159 kts | 299° |
| 2026-04-26 20:32 | 48.07905 | 16.66731 | 2018 ft | 149 kts | 300° |
| 2026-04-26 20:32 | 48.08354 | 16.65361 | 1813 ft | 145 kts | 299° |
| 2026-04-26 20:33 | 48.08794 | 16.64019 | 1618 ft | 143 kts | 299° |
| 2026-04-26 20:33 | 48.09227 | 16.62695 | 1437 ft | 141 kts | 298° |
| 2026-04-26 20:33 | 48.09655 | 16.61387 | 1231 ft | 139 kts | 297° |
| 2026-04-26 20:33 | 48.10076 | 16.60101 | 1039 ft | 137 kts | 297° |
| 2026-04-26 20:34 | 48.10492 | 16.58827 | 850 ft | 135 kts | 297° |
| 2026-04-26 20:34 | 48.10904 | 16.57566 | 661 ft | 134 kts | 297° |
| 2026-04-26 20:34 | 48.11277 | 16.56422 | 621 ft | 102 kts | 292° |
| 2026-04-26 20:34 | 48.11522 | 16.55671 | 619 ft | 62 kts | 296° |
| 2026-04-26 20:35 | 48.11670 | 16.55336 | 611 ft | 24 kts | 315° |
| 2026-04-26 20:35 | 48.11791 | 16.55167 | 615 ft | 24 kts | 328° |
| 2026-04-26 20:35 | 48.11880 | 16.55229 | 611 ft | 17 kts | 106° |
| 2026-04-26 20:35 | 48.11822 | 16.55395 | 616 ft | 19 kts | 115° |
| 2026-04-26 20:36 | 48.11748 | 16.55621 | 619 ft | 28 kts | 116° |
| 2026-04-26 20:36 | 48.11662 | 16.55883 | 623 ft | 28 kts | 116° |
| 2026-04-26 20:36 | 48.11576 | 16.56147 | 612 ft | 28 kts | 115° |
| 2026-04-26 20:36 | 48.11489 | 16.56416 | 611 ft | 29 kts | 116° |
| 2026-04-26 20:37 | 48.11403 | 16.56677 | 613 ft | 27 kts | 116° |
| 2026-04-26 20:37 | 48.11320 | 16.56935 | 613 ft | 28 kts | 116° |
| 2026-04-26 20:37 | 48.11240 | 16.57180 | 619 ft | 23 kts | 115° |
| 2026-04-26 20:37 | 48.11313 | 16.57332 | 613 ft | 21 kts | 25° |
| 2026-04-26 20:38 | 48.11450 | 16.57431 | 617 ft | 23 kts | 26° |
| 2026-04-26 20:38 | 48.11599 | 16.57435 | 612 ft | 23 kts | 344° |
| 2026-04-26 20:38 | 48.11756 | 16.57366 | 618 ft | 24 kts | 345° |
| 2026-04-26 20:38 | 48.11849 | 16.57235 | 619 ft | 19 kts | 296° |
| 2026-04-26 20:39 | 48.11910 | 16.57046 | 614 ft | 21 kts | 296° |
| 2026-04-26 20:39 | 48.11953 | 16.56916 | 619 ft | 19 kts | 297° |
| 2026-04-26 20:39 | 48.11930 | 16.56792 | 614 ft | 9 kts | 206° |
| 2026-04-26 20:39 | 48.11899 | 16.56769 | 611 ft | 2 kts | 206° |
| 2026-04-26 20:40 | 48.11897 | 16.56768 | 611 ft | 0 kts | 206° |